sensor_id;sensor_type;location;lat;lon;timestamp;pressure;altitude;pressure_sealevel;temperature;humidity
46782;BME280;32541;46.298;11.506;2024-03-29T00:01:47;88657.31;;;1.45;100.00
46782;BME280;32541;46.298;11.506;2024-03-29T00:04:12;88650.63;;;1.46;100.00
46782;BME280;32541;46.298;11.506;2024-03-29T00:06:37;88652.59;;;1.46;100.00
46782;BME280;32541;46.298;11.506;2024-03-29T00:09:03;88649.91;;;1.38;100.00
46782;BME280;32541;46.298;11.506;2024-03-29T00:11:28;88645.41;;;1.26;100.00
46782;BME280;32541;46.298;11.506;2024-03-29T00:13:54;88665.28;;;1.05;100.00
46782;BME280;32541;46.298;11.506;2024-03-29T00:16:19;88675.75;;;1.17;100.00
46782;BME280;32541;46.298;11.506;2024-03-29T00:18:47;88657.69;;;1.27;100.00
46782;BME280;32541;46.298;11.506;2024-03-29T00:21:12;88669.06;;;1.25;100.00
46782;BME280;32541;46.298;11.506;2024-03-29T00:23:40;88667.81;;;1.26;100.00
46782;BME280;32541;46.298;11.506;2024-03-29T00:26:05;88659.50;;;1.17;100.00
46782;BME280;32541;46.298;11.506;2024-03-29T00:28:32;88662.22;;;1.17;100.00
46782;BME280;32541;46.298;11.506;2024-03-29T00:30:57;88646.16;;;1.11;100.00
46782;BME280;32541;46.298;11.506;2024-03-29T00:33:23;88636.06;;;1.11;100.00
46782;BME280;32541;46.298;11.506;2024-03-29T00:35:49;88628.47;;;1.10;100.00
46782;BME280;32541;46.298;11.506;2024-03-29T00:38:14;88625.75;;;1.10;100.00
46782;BME280;32541;46.298;11.506;2024-03-29T00:40:40;88614.59;;;1.06;100.00
46782;BME280;32541;46.298;11.506;2024-03-29T00:43:05;88618.38;;;1.03;100.00
46782;BME280;32541;46.298;11.506;2024-03-29T00:45:30;88620.53;;;1.04;100.00
46782;BME280;32541;46.298;11.506;2024-03-29T00:47:56;88622.50;;;1.04;100.00
46782;BME280;32541;46.298;11.506;2024-03-29T00:50:21;88616.94;;;1.09;100.00
46782;BME280;32541;46.298;11.506;2024-03-29T00:52:46;88606.44;;;1.13;100.00
46782;BME280;32541;46.298;11.506;2024-03-29T00:55:13;88616.00;;;1.15;100.00
46782;BME280;32541;46.298;11.506;2024-03-29T00:57:39;88629.94;;;1.03;100.00
46782;BME280;32541;46.298;11.506;2024-03-29T01:00:05;88620.56;;;0.82;100.00
46782;BME280;32541;46.298;11.506;2024-03-29T01:02:31;88629.91;;;0.96;100.00
46782;BME280;32541;46.298;11.506;2024-03-29T01:04:56;88634.59;;;0.95;100.00
46782;BME280;32541;46.298;11.506;2024-03-29T01:07:22;88643.28;;;1.01;100.00
46782;BME280;32541;46.298;11.506;2024-03-29T01:09:47;88640.94;;;0.90;100.00
46782;BME280;32541;46.298;11.506;2024-03-29T01:12:12;88632.09;;;0.97;100.00
46782;BME280;32541;46.298;11.506;2024-03-29T01:14:38;88651.94;;;1.00;100.00
46782;BME280;32541;46.298;11.506;2024-03-29T01:17:03;88660.78;;;1.00;100.00
46782;BME280;32541;46.298;11.506;2024-03-29T01:19:29;88677.75;;;0.86;100.00
46782;BME280;32541;46.298;11.506;2024-03-29T01:21:54;88675.91;;;0.66;100.00
46782;BME280;32541;46.298;11.506;2024-03-29T01:24:20;88682.94;;;0.61;100.00
46782;BME280;32541;46.298;11.506;2024-03-29T01:26:45;88665.63;;;0.64;100.00
46782;BME280;32541;46.298;11.506;2024-03-29T01:29:11;88672.84;;;0.69;100.00
46782;BME280;32541;46.298;11.506;2024-03-29T01:31:36;88681.50;;;0.60;100.00
46782;BME280;32541;46.298;11.506;2024-03-29T01:34:02;88688.72;;;0.65;100.00
46782;BME280;32541;46.298;11.506;2024-03-29T01:36:28;88686.38;;;0.62;100.00
46782;BME280;32541;46.298;11.506;2024-03-29T01:38:53;88694.28;;;0.60;100.00
46782;BME280;32541;46.298;11.506;2024-03-29T01:41:22;88698.28;;;0.66;100.00
46782;BME280;32541;46.298;11.506;2024-03-29T01:43:49;88698.28;;;0.66;100.00
46782;BME280;32541;46.298;11.506;2024-03-29T01:46:14;88710.91;;;0.64;100.00
46782;BME280;32541;46.298;11.506;2024-03-29T01:48:40;88715.41;;;0.61;100.00
46782;BME280;32541;46.298;11.506;2024-03-29T01:51:06;88717.94;;;0.59;100.00
46782;BME280;32541;46.298;11.506;2024-03-29T01:53:31;88725.16;;;0.64;100.00
46782;BME280;32541;46.298;11.506;2024-03-29T01:55:59;88727.13;;;0.64;100.00
46782;BME280;32541;46.298;11.506;2024-03-29T01:58:26;88730.94;;;0.68;100.00
46782;BME280;32541;46.298;11.506;2024-03-29T02:00:57;88734.50;;;0.55;100.00
46782;BME280;32541;46.298;11.506;2024-03-29T02:03:23;88742.41;;;0.53;100.00
46782;BME280;32541;46.298;11.506;2024-03-29T02:05:49;88737.72;;;0.54;100.00
46782;BME280;32541;46.298;11.506;2024-03-29T02:08:14;88750.69;;;0.48;100.00
46782;BME280;32541;46.298;11.506;2024-03-29T02:10:41;88744.94;;;0.44;100.00
46782;BME280;32541;46.298;11.506;2024-03-29T02:13:07;88738.97;;;0.45;100.00
46782;BME280;32541;46.298;11.506;2024-03-29T02:15:32;88748.53;;;0.46;100.00
46782;BME280;32541;46.298;11.506;2024-03-29T02:17:58;88738.81;;;0.51;100.00
46782;BME280;32541;46.298;11.506;2024-03-29T02:20:24;88741.16;;;0.54;100.00
46782;BME280;32541;46.298;11.506;2024-03-29T02:23:07;88746.91;;;0.51;100.00
46782;BME280;32541;46.298;11.506;2024-03-29T02:25:34;88744.94;;;0.44;100.00
46782;BME280;32541;46.298;11.506;2024-03-29T02:28:01;88742.75;;;0.35;100.00
46782;BME280;32541;46.298;11.506;2024-03-29T02:30:28;88742.03;;;0.42;100.00
46782;BME280;32541;46.298;11.506;2024-03-29T02:32:55;88748.16;;;0.42;100.00
46782;BME280;32541;46.298;11.506;2024-03-29T02:35:21;88758.97;;;0.35;100.00
46782;BME280;32541;46.298;11.506;2024-03-29T02:37:46;88754.63;;;0.39;100.00
46782;BME280;32541;46.298;11.506;2024-03-29T02:40:11;88756.81;;;0.41;100.00
46782;BME280;32541;46.298;11.506;2024-03-29T02:42:37;88754.06;;;0.33;100.00
46782;BME280;32541;46.298;11.506;2024-03-29T02:45:03;88737.69;;;0.31;100.00
46782;BME280;32541;46.298;11.506;2024-03-29T02:47:29;88736.94;;;0.31;100.00
46782;BME280;32541;46.298;11.506;2024-03-29T02:49:54;88749.06;;;0.37;100.00
46782;BME280;32541;46.298;11.506;2024-03-29T02:52:20;88751.38;;;0.33;100.00
46782;BME280;32541;46.298;11.506;2024-03-29T02:54:45;88757.13;;;0.30;100.00
46782;BME280;32541;46.298;11.506;2024-03-29T02:57:11;88767.75;;;0.28;100.00
46782;BME280;32541;46.298;11.506;2024-03-29T02:59:36;88775.88;;;0.28;100.00
46782;BME280;32541;46.298;11.506;2024-03-29T03:02:01;88786.19;;;0.37;100.00
46782;BME280;32541;46.298;11.506;2024-03-29T03:04:27;88792.25;;;0.30;100.00
46782;BME280;32541;46.298;11.506;2024-03-29T03:06:52;88790.28;;;0.30;100.00
46782;BME280;32541;46.298;11.506;2024-03-29T03:09:17;88794.63;;;0.33;100.00
46782;BME280;32541;46.298;11.506;2024-03-29T03:12:01;88789.53;;;0.15;100.00
46782;BME280;32541;46.298;11.506;2024-03-29T03:14:27;88795.13;;;0.24;100.00
46782;BME280;32541;46.298;11.506;2024-03-29T03:16:52;88783.81;;;0.33;100.00
46782;BME280;32541;46.298;11.506;2024-03-29T03:19:18;88778.06;;;0.37;100.00
46782;BME280;32541;46.298;11.506;2024-03-29T03:21:44;88794.09;;;0.35;100.00
46782;BME280;32541;46.298;11.506;2024-03-29T03:24:09;88799.53;;;0.42;100.00
46782;BME280;32541;46.298;11.506;2024-03-29T03:26:37;88807.66;;;0.42;100.00
46782;BME280;32541;46.298;11.506;2024-03-29T03:29:02;88799.88;;;0.39;100.00
46782;BME280;32541;46.298;11.506;2024-03-29T03:31:28;88786.91;;;0.37;100.00
46782;BME280;32541;46.298;11.506;2024-03-29T03:33:53;88801.19;;;0.45;100.00
46782;BME280;32541;46.298;11.506;2024-03-29T03:36:18;88801.31;;;0.32;100.00
46782;BME280;32541;46.298;11.506;2024-03-29T03:38:44;88811.19;;;0.30;100.00
46782;BME280;32541;46.298;11.506;2024-03-29T03:41:09;88816.81;;;0.32;100.00
46782;BME280;32541;46.298;11.506;2024-03-29T03:43:34;88815.31;;;0.23;100.00
46782;BME280;32541;46.298;11.506;2024-03-29T03:46:01;88810.28;;;0.27;100.00
46782;BME280;32541;46.298;11.506;2024-03-29T03:48:27;88825.06;;;0.26;100.00
46782;BME280;32541;46.298;11.506;2024-03-29T03:50:53;88818.75;;;0.24;100.00
46782;BME280;32541;46.298;11.506;2024-03-29T03:53:19;88828.88;;;0.31;100.00
46782;BME280;32541;46.298;11.506;2024-03-29T03:55:44;88830.13;;;0.30;100.00
46782;BME280;32541;46.298;11.506;2024-03-29T03:58:10;88828.13;;;0.23;100.00
46782;BME280;32541;46.298;11.506;2024-03-29T04:00:35;88823.03;;;0.19;100.00
46782;BME280;32541;46.298;11.506;2024-03-29T04:03:00;88816.53;;;0.15;100.00
46782;BME280;32541;46.298;11.506;2024-03-29T04:05:26;88818.69;;;0.16;100.00
46782;BME280;32541;46.298;11.506;2024-03-29T04:07:51;88821.22;;;0.14;100.00
46782;BME280;32541;46.298;11.506;2024-03-29T04:10:16;88829.06;;;0.33;100.00
46782;BME280;32541;46.298;11.506;2024-03-29T04:12:42;88829.75;;;0.26;100.00
46782;BME280;32541;46.298;11.506;2024-03-29T04:15:08;88827.34;;;0.15;100.00
46782;BME280;32541;46.298;11.506;2024-03-29T04:17:34;88823.72;;;0.12;100.00
46782;BME280;32541;46.298;11.506;2024-03-29T04:19:59;88836.59;;;0.27;100.00
46782;BME280;32541;46.298;11.506;2024-03-29T04:22:27;88837.31;;;0.27;100.00
46782;BME280;32541;46.298;11.506;2024-03-29T04:24:53;88841.81;;;0.25;100.00
46782;BME280;32541;46.298;11.506;2024-03-29T04:27:18;88827.53;;;0.17;100.00
46782;BME280;32541;46.298;11.506;2024-03-29T04:29:44;88842.13;;;0.14;100.00
46782;BME280;32541;46.298;11.506;2024-03-29T04:32:09;88834.19;;;0.16;100.00
46782;BME280;32541;46.298;11.506;2024-03-29T04:34:34;88831.41;;;0.29;100.00
46782;BME280;32541;46.298;11.506;2024-03-29T04:37:00;88838.59;;;0.26;100.00
46782;BME280;32541;46.298;11.506;2024-03-29T04:39:25;88834.41;;;0.18;100.00
46782;BME280;32541;46.298;11.506;2024-03-29T04:41:51;88836.91;;;0.16;100.00
46782;BME280;32541;46.298;11.506;2024-03-29T04:44:27;88833.69;;;0.17;100.00
46782;BME280;32541;46.298;11.506;2024-03-29T04:46:52;88838.88;;;0.15;100.00
46782;BME280;32541;46.298;11.506;2024-03-29T04:49:24;88840.66;;;0.13;100.00
46782;BME280;32541;46.298;11.506;2024-03-29T04:51:58;88844.34;;;0.23;100.00
46782;BME280;32541;46.298;11.506;2024-03-29T04:54:25;88857.72;;;0.36;100.00
46782;BME280;32541;46.298;11.506;2024-03-29T04:56:50;88855.56;;;0.34;100.00
46782;BME280;32541;46.298;11.506;2024-03-29T04:59:15;88865.22;;;0.22;100.00
46782;BME280;32541;46.298;11.506;2024-03-29T05:01:43;88853.38;;;0.33;100.00
46782;BME280;32541;46.298;11.506;2024-03-29T05:04:09;88851.03;;;0.29;100.00
46782;BME280;32541;46.298;11.506;2024-03-29T05:06:35;88866.06;;;0.38;100.00
46782;BME280;32541;46.298;11.506;2024-03-29T05:09:00;88874.16;;;0.38;100.00
46782;BME280;32541;46.298;11.506;2024-03-29T05:11:26;88884.84;;;0.51;100.00
46782;BME280;32541;46.298;11.506;2024-03-29T05:13:51;88877.28;;;0.49;100.00
46782;BME280;32541;46.298;11.506;2024-03-29T05:16:17;88885.16;;;0.40;100.00
46782;BME280;32541;46.298;11.506;2024-03-29T05:18:43;88900.56;;;0.52;100.00
46782;BME280;32541;46.298;11.506;2024-03-29T05:21:08;88907.63;;;0.55;100.00
46782;BME280;32541;46.298;11.506;2024-03-29T05:23:34;88915.81;;;0.42;100.00
46782;BME280;32541;46.298;11.506;2024-03-29T05:25:59;88926.69;;;0.50;100.00
46782;BME280;32541;46.298;11.506;2024-03-29T05:28:25;88936.72;;;0.42;100.00
46782;BME280;32541;46.298;11.506;2024-03-29T05:30:51;88937.09;;;0.38;100.00
46782;BME280;32541;46.298;11.506;2024-03-29T05:33:16;88932.84;;;0.50;100.00
46782;BME280;32541;46.298;11.506;2024-03-29T05:35:42;88918.09;;;0.59;100.00
46782;BME280;32541;46.298;11.506;2024-03-29T05:38:07;88935.22;;;0.62;100.00
46782;BME280;32541;46.298;11.506;2024-03-29T05:40:33;88930.81;;;0.79;100.00
46782;BME280;32541;46.298;11.506;2024-03-29T05:42:58;88929.94;;;0.84;100.00
46782;BME280;32541;46.298;11.506;2024-03-29T05:45:26;88926.25;;;0.67;100.00
46782;BME280;32541;46.298;11.506;2024-03-29T05:47:54;88924.25;;;0.67;100.00
46782;BME280;32541;46.298;11.506;2024-03-29T05:50:20;88926.78;;;0.65;100.00
46782;BME280;32541;46.298;11.506;2024-03-29T05:52:46;88927.88;;;0.70;100.00
46782;BME280;32541;46.298;11.506;2024-03-29T05:55:11;88923.19;;;0.70;100.00
46782;BME280;32541;46.298;11.506;2024-03-29T05:57:36;88927.16;;;0.69;100.00
46782;BME280;32541;46.298;11.506;2024-03-29T06:00:07;88918.31;;;0.69;100.00
46782;BME280;32541;46.298;11.506;2024-03-29T06:02:35;88931.53;;;0.80;100.00
46782;BME280;32541;46.298;11.506;2024-03-29T06:05:01;88938.78;;;0.85;100.00
46782;BME280;32541;46.298;11.506;2024-03-29T06:07:26;88937.16;;;0.89;100.00
46782;BME280;32541;46.298;11.506;2024-03-29T06:09:54;88954.91;;;0.98;100.00
46782;BME280;32541;46.298;11.506;2024-03-29T06:12:19;88954.53;;;1.01;100.00
46782;BME280;32541;46.298;11.506;2024-03-29T06:14:45;88946.47;;;1.09;100.00
46782;BME280;32541;46.298;11.506;2024-03-29T06:17:29;88941.81;;;1.17;100.00
46782;BME280;32541;46.298;11.506;2024-03-29T06:19:55;88962.06;;;1.24;100.00
46782;BME280;32541;46.298;11.506;2024-03-29T06:22:25;88943.84;;;1.32;100.00
46782;BME280;32541;46.298;11.506;2024-03-29T06:24:51;88958.13;;;1.40;100.00
46782;BME280;32541;46.298;11.506;2024-03-29T06:27:20;88949.88;;;1.60;100.00
46782;BME280;32541;46.298;11.506;2024-03-29T06:29:48;88942.47;;;1.61;100.00
46782;BME280;32541;46.298;11.506;2024-03-29T06:32:14;88945.75;;;1.67;100.00
46782;BME280;32541;46.298;11.506;2024-03-29T06:34:39;88955.88;;;1.82;100.00
46782;BME280;32541;46.298;11.506;2024-03-29T06:37:05;88949.00;;;1.73;100.00
46782;BME280;32541;46.298;11.506;2024-03-29T06:39:30;88920.66;;;1.74;100.00
46782;BME280;32541;46.298;11.506;2024-03-29T06:41:56;88923.19;;;1.80;100.00
46782;BME280;32541;46.298;11.506;2024-03-29T06:44:21;88930.94;;;1.76;100.00
46782;BME280;32541;46.298;11.506;2024-03-29T06:46:47;88932.97;;;1.98;100.00
46782;BME280;32541;46.298;11.506;2024-03-29T06:49:12;88940.38;;;1.97;100.00
46782;BME280;32541;46.298;11.506;2024-03-29T06:51:41;88934.16;;;1.66;100.00
46782;BME280;32541;46.298;11.506;2024-03-29T06:54:06;88917.91;;;1.66;100.00
46782;BME280;32541;46.298;11.506;2024-03-29T06:56:31;88925.69;;;1.70;100.00
46782;BME280;32541;46.298;11.506;2024-03-29T06:58:57;88932.94;;;1.75;100.00
46782;BME280;32541;46.298;11.506;2024-03-29T07:01:23;88932.78;;;1.81;100.00
46782;BME280;32541;46.298;11.506;2024-03-29T07:03:48;88927.34;;;1.88;100.00
46782;BME280;32541;46.298;11.506;2024-03-29T07:06:14;88925.38;;;1.89;100.00
46782;BME280;32541;46.298;11.506;2024-03-29T07:08:39;88934.41;;;2.21;100.00
46782;BME280;32541;46.298;11.506;2024-03-29T07:11:05;88947.59;;;2.17;100.00
46782;BME280;32541;46.298;11.506;2024-03-29T07:13:30;88942.38;;;2.12;100.00
46782;BME280;32541;46.298;11.506;2024-03-29T07:15:57;88947.97;;;2.14;100.00
46782;BME280;32541;46.298;11.506;2024-03-29T07:18:23;88959.75;;;2.16;100.00
46782;BME280;32541;46.298;11.506;2024-03-29T07:20:51;88949.97;;;2.13;100.00
46782;BME280;32541;46.298;11.506;2024-03-29T07:23:17;88963.34;;;2.19;100.00
46782;BME280;32541;46.298;11.506;2024-03-29T07:26:01;88948.53;;;2.28;100.00
46782;BME280;32541;46.298;11.506;2024-03-29T07:28:27;88949.63;;;2.24;100.00
46782;BME280;32541;46.298;11.506;2024-03-29T07:30:53;88943.47;;;2.24;100.00
46782;BME280;32541;46.298;11.506;2024-03-29T07:33:24;88935.50;;;2.34;100.00
46782;BME280;32541;46.298;11.506;2024-03-29T07:35:53;88934.03;;;2.63;100.00
46782;BME280;32541;46.298;11.506;2024-03-29T07:38:20;88945.41;;;2.76;100.00
46782;BME280;32541;46.298;11.506;2024-03-29T07:40:46;88945.41;;;2.84;100.00
46782;BME280;32541;46.298;11.506;2024-03-29T07:43:12;88950.31;;;2.63;100.00
46782;BME280;32541;46.298;11.506;2024-03-29T07:45:42;88968.97;;;2.29;100.00
46782;BME280;32541;46.298;11.506;2024-03-29T07:48:15;88953.22;;;2.19;100.00
46782;BME280;32541;46.298;11.506;2024-03-29T07:50:45;88962.97;;;2.38;100.00
46782;BME280;32541;46.298;11.506;2024-03-29T07:53:11;88964.78;;;2.50;100.00
46782;BME280;32541;46.298;11.506;2024-03-29T07:55:37;88965.53;;;2.43;100.00
46782;BME280;32541;46.298;11.506;2024-03-29T07:58:03;88976.72;;;2.47;100.00
46782;BME280;32541;46.298;11.506;2024-03-29T08:00:31;88976.38;;;2.43;100.00
46782;BME280;32541;46.298;11.506;2024-03-29T08:02:56;88982.88;;;2.48;100.00
46782;BME280;32541;46.298;11.506;2024-03-29T08:05:22;88975.66;;;2.73;100.00
46782;BME280;32541;46.298;11.506;2024-03-29T08:07:47;88975.66;;;2.73;100.00
46782;BME280;32541;46.298;11.506;2024-03-29T08:10:13;88975.97;;;2.77;100.00
46782;BME280;32541;46.298;11.506;2024-03-29T08:12:38;88968.00;;;2.87;100.00
46782;BME280;32541;46.298;11.506;2024-03-29T08:15:04;88966.75;;;2.80;100.00
46782;BME280;32541;46.298;11.506;2024-03-29T08:17:30;88980.31;;;2.95;100.00
46782;BME280;32541;46.298;11.506;2024-03-29T08:19:55;88968.03;;;2.79;100.00
46782;BME280;32541;46.298;11.506;2024-03-29T08:22:20;88979.59;;;2.79;100.00
46782;BME280;32541;46.298;11.506;2024-03-29T08:24:46;88978.91;;;2.79;100.00
46782;BME280;32541;46.298;11.506;2024-03-29T08:27:11;88992.09;;;2.83;100.00
46782;BME280;32541;46.298;11.506;2024-03-29T08:29:37;88996.97;;;2.92;100.00
46782;BME280;32541;46.298;11.506;2024-03-29T08:32:02;89008.56;;;3.00;100.00
46782;BME280;32541;46.298;11.506;2024-03-29T08:34:28;89012.16;;;3.02;100.00
46782;BME280;32541;46.298;11.506;2024-03-29T08:37:00;89009.09;;;3.06;100.00
46782;BME280;32541;46.298;11.506;2024-03-29T08:39:25;89012.50;;;3.14;100.00
46782;BME280;32541;46.298;11.506;2024-03-29T08:41:51;89018.66;;;3.14;100.00
46782;BME280;32541;46.298;11.506;2024-03-29T08:44:16;89027.16;;;3.18;100.00
46782;BME280;32541;46.298;11.506;2024-03-29T08:46:42;89038.22;;;3.20;100.00
46782;BME280;32541;46.298;11.506;2024-03-29T08:49:07;89043.09;;;3.22;100.00
46782;BME280;32541;46.298;11.506;2024-03-29T08:51:33;89033.31;;;3.26;100.00
46782;BME280;32541;46.298;11.506;2024-03-29T08:53:58;89034.75;;;3.27;100.00
46782;BME280;32541;46.298;11.506;2024-03-29T08:56:24;89050.81;;;3.56;100.00
46782;BME280;32541;46.298;11.506;2024-03-29T08:58:49;89037.38;;;3.58;100.00
46782;BME280;32541;46.298;11.506;2024-03-29T09:01:15;89057.00;;;3.41;100.00
46782;BME280;32541;46.298;11.506;2024-03-29T09:03:40;89048.53;;;3.22;100.00
46782;BME280;32541;46.298;11.506;2024-03-29T09:06:05;89052.34;;;3.26;100.00
46782;BME280;32541;46.298;11.506;2024-03-29T09:08:31;89062.09;;;3.29;100.00
46782;BME280;32541;46.298;11.506;2024-03-29T09:10:56;89056.09;;;3.46;100.00
46782;BME280;32541;46.298;11.506;2024-03-29T09:13:21;89058.59;;;3.52;100.00
46782;BME280;32541;46.298;11.506;2024-03-29T09:15:47;89055.88;;;3.52;100.00
46782;BME280;32541;46.298;11.506;2024-03-29T09:18:14;89056.59;;;3.60;100.00
46782;BME280;32541;46.298;11.506;2024-03-29T09:20:46;89057.31;;;3.60;100.00
46782;BME280;32541;46.298;11.506;2024-03-29T09:23:11;89061.06;;;3.80;100.00
46782;BME280;32541;46.298;11.506;2024-03-29T09:25:40;89075.47;;;3.50;100.00
46782;BME280;32541;46.298;11.506;2024-03-29T09:28:06;89053.69;;;3.58;100.00
46782;BME280;32541;46.298;11.506;2024-03-29T09:30:32;89056.41;;;3.58;100.00
46782;BME280;32541;46.298;11.506;2024-03-29T09:32:57;89065.53;;;3.38;100.00
46782;BME280;32541;46.298;11.506;2024-03-29T09:35:22;89063.00;;;3.32;100.00
46782;BME280;32541;46.298;11.506;2024-03-29T09:37:48;89070.97;;;3.38;100.00
46782;BME280;32541;46.298;11.506;2024-03-29T09:40:13;89073.31;;;3.33;100.00
46782;BME280;32541;46.298;11.506;2024-03-29T09:42:39;89060.06;;;3.53;100.00
46782;BME280;32541;46.298;11.506;2024-03-29T09:45:05;89058.06;;;3.53;100.00
46782;BME280;32541;46.298;11.506;2024-03-29T09:47:31;89059.88;;;3.51;100.00
46782;BME280;32541;46.298;11.506;2024-03-29T09:49:59;89067.09;;;3.63;100.00
46782;BME280;32541;46.298;11.506;2024-03-29T09:52:27;89063.31;;;3.59;100.00
46782;BME280;32541;46.298;11.506;2024-03-29T09:54:54;89058.78;;;3.61;100.00
46782;BME280;32541;46.298;11.506;2024-03-29T09:57:21;89057.63;;;3.72;100.00
46782;BME280;32541;46.298;11.506;2024-03-29T09:59:46;89063.44;;;3.76;100.00
46782;BME280;32541;46.298;11.506;2024-03-29T10:02:15;89057.94;;;3.91;100.00
46782;BME280;32541;46.298;11.506;2024-03-29T10:04:42;89060.75;;;4.08;100.00
46782;BME280;32541;46.298;11.506;2024-03-29T10:07:08;89060.84;;;4.25;100.00
46782;BME280;32541;46.298;11.506;2024-03-29T10:09:35;89060.72;;;4.16;100.00
46782;BME280;32541;46.298;11.506;2024-03-29T10:12:01;89055.94;;;4.31;100.00
46782;BME280;32541;46.298;11.506;2024-03-29T10:14:30;89059.38;;;4.32;100.00
46782;BME280;32541;46.298;11.506;2024-03-29T10:16:55;89075.09;;;4.09;100.00
46782;BME280;32541;46.298;11.506;2024-03-29T10:19:21;89055.56;;;3.95;100.00
46782;BME280;32541;46.298;11.506;2024-03-29T10:21:47;89070.59;;;3.96;100.00
46782;BME280;32541;46.298;11.506;2024-03-29T10:24:13;89068.31;;;3.77;100.00
46782;BME280;32541;46.298;11.506;2024-03-29T10:26:42;89057.16;;;3.98;100.00
46782;BME280;32541;46.298;11.506;2024-03-29T10:29:08;89050.63;;;4.01;100.00
46782;BME280;32541;46.298;11.506;2024-03-29T10:31:35;89053.53;;;4.03;100.00
46782;BME280;32541;46.298;11.506;2024-03-29T10:34:04;89049.66;;;4.21;100.00
46782;BME280;32541;46.298;11.506;2024-03-29T10:36:34;89056.13;;;4.33;100.00
46782;BME280;32541;46.298;11.506;2024-03-29T10:39:10;89057.59;;;4.27;100.00
46782;BME280;32541;46.298;11.506;2024-03-29T10:41:40;89055.03;;;4.29;100.00
46782;BME280;32541;46.298;11.506;2024-03-29T10:44:09;89067.25;;;4.20;100.00
46782;BME280;32541;46.298;11.506;2024-03-29T10:46:43;89069.88;;;4.03;100.00
46782;BME280;32541;46.298;11.506;2024-03-29T10:49:14;89060.25;;;4.02;100.00
46782;BME280;32541;46.298;11.506;2024-03-29T10:51:42;89057.47;;;4.17;100.00
46782;BME280;32541;46.298;11.506;2024-03-29T10:54:11;89060.28;;;4.34;100.00
46782;BME280;32541;46.298;11.506;2024-03-29T10:56:37;89063.66;;;4.10;100.00
46782;BME280;32541;46.298;11.506;2024-03-29T10:59:20;89045.13;;;4.16;100.00
46782;BME280;32541;46.298;11.506;2024-03-29T11:01:52;89062.16;;;4.24;100.00
46782;BME280;32541;46.298;11.506;2024-03-29T11:04:22;89047.63;;;4.22;100.00
46782;BME280;32541;46.298;11.506;2024-03-29T11:06:54;89041.50;;;4.21;100.00
46782;BME280;32541;46.298;11.506;2024-03-29T11:09:27;89054.16;;;4.26;100.00
46782;BME280;32541;46.298;11.506;2024-03-29T11:11:54;89064.06;;;4.07;100.00
46782;BME280;32541;46.298;11.506;2024-03-29T11:14:31;89055.38;;;4.01;100.00
46782;BME280;32541;46.298;11.506;2024-03-29T11:16:59;89069.41;;;3.74;100.00
46782;BME280;32541;46.298;11.506;2024-03-29T11:19:25;89071.44;;;3.74;100.00
46782;BME280;32541;46.298;11.506;2024-03-29T11:21:51;89053.59;;;3.88;100.00
46782;BME280;32541;46.298;11.506;2024-03-29T11:24:17;89051.78;;;3.90;100.00
46782;BME280;32541;46.298;11.506;2024-03-29T11:26:45;89054.50;;;3.90;100.00
46782;BME280;32541;46.298;11.506;2024-03-29T11:29:21;89047.75;;;3.99;100.00
46782;BME280;32541;46.298;11.506;2024-03-29T11:31:47;89052.28;;;3.97;100.00
46782;BME280;32541;46.298;11.506;2024-03-29T11:34:19;89041.88;;;4.10;100.00
46782;BME280;32541;46.298;11.506;2024-03-29T11:36:45;89047.91;;;4.01;100.00
46782;BME280;32541;46.298;11.506;2024-03-29T11:39:22;89043.69;;;4.15;100.00
46782;BME280;32541;46.298;11.506;2024-03-29T11:41:49;89046.41;;;4.15;100.00
46782;BME280;32541;46.298;11.506;2024-03-29T11:44:15;89048.19;;;4.20;100.00
46782;BME280;32541;46.298;11.506;2024-03-29T11:46:42;89043.19;;;4.02;100.00
46782;BME280;32541;46.298;11.506;2024-03-29T11:49:08;89040.63;;;4.11;100.00
46782;BME280;32541;46.298;11.506;2024-03-29T11:51:34;89044.88;;;4.29;100.00
46782;BME280;32541;46.298;11.506;2024-03-29T11:54:00;89055.78;;;4.29;100.00
46782;BME280;32541;46.298;11.506;2024-03-29T11:56:26;89026.88;;;4.34;100.00
46782;BME280;32541;46.298;11.506;2024-03-29T11:58:51;89034.44;;;4.43;100.00
46782;BME280;32541;46.298;11.506;2024-03-29T12:01:18;89046.41;;;4.47;100.00
46782;BME280;32541;46.298;11.506;2024-03-29T12:03:44;89050.03;;;4.50;100.00
46782;BME280;32541;46.298;11.506;2024-03-29T12:06:09;89038.69;;;4.61;100.00
46782;BME280;32541;46.298;11.506;2024-03-29T12:08:39;89036.84;;;4.64;100.00
46782;BME280;32541;46.298;11.506;2024-03-29T12:11:05;89051.34;;;4.66;100.00
46782;BME280;32541;46.298;11.506;2024-03-29T12:13:31;89044.72;;;4.60;100.00
46782;BME280;32541;46.298;11.506;2024-03-29T12:15:57;89039.91;;;4.68;100.00
46782;BME280;32541;46.298;11.506;2024-03-29T12:18:24;89027.16;;;4.78;100.00
46782;BME280;32541;46.298;11.506;2024-03-29T12:20:51;89041.41;;;5.11;100.00
46782;BME280;32541;46.298;11.506;2024-03-29T12:23:20;89048.31;;;5.29;100.00
46782;BME280;32541;46.298;11.506;2024-03-29T12:25:47;89026.81;;;5.40;100.00
46782;BME280;32541;46.298;11.506;2024-03-29T12:28:14;89030.16;;;5.48;100.00
46782;BME280;32541;46.298;11.506;2024-03-29T12:30:46;89015.41;;;5.69;100.00
46782;BME280;32541;46.298;11.506;2024-03-29T12:33:15;89007.06;;;5.84;100.00
46782;BME280;32541;46.298;11.506;2024-03-29T12:35:42;89016.88;;;5.87;100.00
46782;BME280;32541;46.298;11.506;2024-03-29T12:38:11;89009.59;;;6.16;100.00
46782;BME280;32541;46.298;11.506;2024-03-29T12:40:37;89017.59;;;6.31;100.00
46782;BME280;32541;46.298;11.506;2024-03-29T12:43:05;89013.13;;;6.26;100.00
46782;BME280;32541;46.298;11.506;2024-03-29T12:45:32;88992.41;;;6.23;100.00
46782;BME280;32541;46.298;11.506;2024-03-29T12:47:58;88976.97;;;6.35;100.00